Ridgeland, MS

9:00 PM CDT on June 25, 2017 (GMT -0500)
Dinsmor | | Change Station
Active Advisory: Flood Warning

Elev 371 ft 32.42 °N, 90.17 °W | Updated 6 seconds ago

Clear
Clear
72.1 °F
Feels Like 73 °F
N
0.0
Wind Variable Wind from SSE
Gusts 0.0 mph

Today
High -- | Low -- °F
--% Chance of Precip.
Yesterday
High -- | Low -- °F
Precip. -- in
Pressure 30.16 in
Visibility 10.0 miles
Clouds Clear
Heat Index 73 °F
Dew Point 64 °F
Humidity 76%
Rainfall 0.04 in
Snow Depth Not available.
5:55 AM 8:11 PM
Waxing Crescent, 6% visible
METAR KHKS 260153Z 00000KT 10SM CLR 23/17 A3018 RMK AO2 SLP211 T02280167
Pressure 30.16 in
Visibility 10.0 miles
Clouds Clear
Heat Index 73 °F
Dew Point 64 °F
Humidity 76%
Rainfall 0.04 in
Snow Depth Not available.
5:55 AM 8:11 PM
Waxing Crescent, 6% visible
METAR KHKS 260153Z 00000KT 10SM CLR 23/17 A3018 RMK AO2 SLP211 T02280167

Get Your Daily Forecast Email!

Thanks for signing up!

Be on the lookout for a verification email in your inbox.

You'll start receiving severe weather alerts in your inbox..

×

10-Day Weather Forecast

Almanac

Astronomy

Jun. 25, 2017 Rise Set
Actual Time
Civil Twilight
Nautical Twilight
Astronomical Twilight
Moon
Length of Visible Light
Length of Day
Tomorrow will be .
, % of the Moon is Illuminated

Today's Extremes

State Highs State Lows

Community

WunderPhotos

Category 6

Welcome to Category 6. This is the collective home for Weather Underground's featured writeups by Dr. Jeff Masters (right), Bob Henson (left), Chris Burt, and other regular contributors.

Nearby

Air Quality

  Air Quality AQ Index Pollutant
Not available.

Snow Depth

Station Depth Elevation

Earthquake Activity

City Distance Mag. Time & Date
Minimum magnitude displayed is 2.5.

Coastal Water Temperatures

Place Temperature

Stations

Nearby Weather Stations

Station Location Temp. Windchill Dew Point Humidity Wind Precip. Elev Updated Type
                   

Watches & Warnings

Flood Warning
Issued: 8:08 PM CDT Jun. 25, 2017 – National Weather Service


The Flood Warning continues for
the Big Black River near Bentonia
* until further notice.
* At 7:00 PM Sunday the stage was 25.5 feet.
* Moderate flooding is occurring and moderate flooding is forecast.
* Flood stage is 22.0 feet.
* Forecast... the river will continue rising to near 26.5 feet early
Tuesday morning.
* Impact... at 26.5 feet... flooding of agricultural land has more than
doubled in the last 1.5 feet rise.



              Flood observed forecast 6 am crest
location stg stg day time Mon Tue Wed crest time date

Lower Big Black River
Bentonia 22 25.5 sun 07 PM 25.8 26.5 26.2 26.5 01 am 06/27




Lat... Lon 3256 9064 3281 9012 3291 9006 3285 8987
      3272 8996 3245 9052